SBOSBO AGP / LEMG
Speedbird OnlineSpeedbird Online AGP / LEMG

Málaga Airport
23:52 19°C

Location Malaga, Spain
Latitude: 36.67490005493164
Longitude: -4.499110221862793
Local Time 23:52 on 20 May 2024
UTC +2 hours (Europe/Madrid)
Currency £1 equals EUR 1.17
METAR LEMG 202130Z 28009KT CAVOK 19/07 Q1014 NOSIG
TAF TAF LEMG 201700Z 2018/2118 30008KT CAVOK TX26/2114Z TN17/2106Z PROB40 TEMPO 2114/2118 23010KT
Weather As Of 20 May 2024 23:52
Description Clear sky
Wind 17 km/h from West (280°)
Cloud Cover 0%
Precipitation Rain: none, Snow: none
Sunrise 07:06
Sunset 21:22
NOTAM 52 active NOTAM
Rotations During the last 90 days there were
165 flights from LGW
132 flights from LHR
55 flights from LCY
1 flights from GLA
1 flights from TLS
1 flights from AGP
165 flights to LGW
125 flights to LHR
55 flights to LCY
1 flights to AGP
Lounges Malaga Lounge, Terminal 3
Web Airport Website | Wikipedia
Codes IATA: AGP
ICAO: LEMG
Altitude 16 Meter / 53 Feet
Distance 1,690 KM / 1,050 Miles
from London.
Runways
RunwayLength (m)Surface
122750Asphalt
133200Asphalt
302750Asphalt
313200Asphalt
Radio
TypeDescriptionFrequency
APPAPP Dep118.455
APPAPP Arr123.85
ATISATIS120.375
CLDCLR DEL121.88
GNDGND-W121.705
GNDGND-E121.95
TWRTWR-W (RWY 13-31)118.15
TWRTWR-E (RWY 12-30)118.775
Live ATC



Support Speedbird Online

© 2017-2024 Speedbird Online